sensor_id;sensor_type;location;lat;lon;timestamp;P1;durP1;ratioP1;P2;durP2;ratioP2
6223;SDS011;3145;42.726;23.342;2022-09-25T00:00:31;14.47;;;10.73;;
6223;SDS011;3145;42.726;23.342;2022-09-25T00:02:57;15.70;;;11.60;;
6223;SDS011;3145;42.726;23.342;2022-09-25T00:05:24;16.67;;;11.27;;
6223;SDS011;3145;42.726;23.342;2022-09-25T00:07:51;13.83;;;11.97;;
6223;SDS011;3145;42.726;23.342;2022-09-25T00:10:20;12.20;;;10.93;;
6223;SDS011;3145;42.726;23.342;2022-09-25T00:12:50;12.67;;;11.10;;
6223;SDS011;3145;42.726;23.342;2022-09-25T00:15:17;14.80;;;10.93;;
6223;SDS011;3145;42.726;23.342;2022-09-25T00:17:43;12.57;;;10.60;;
6223;SDS011;3145;42.726;23.342;2022-09-25T00:20:10;15.57;;;10.97;;
6223;SDS011;3145;42.726;23.342;2022-09-25T00:22:36;13.60;;;11.37;;
6223;SDS011;3145;42.726;23.342;2022-09-25T00:25:03;17.47;;;12.40;;
6223;SDS011;3145;42.726;23.342;2022-09-25T00:27:30;12.33;;;10.83;;
6223;SDS011;3145;42.726;23.342;2022-09-25T00:29:59;12.20;;;10.40;;
6223;SDS011;3145;42.726;23.342;2022-09-25T00:32:26;12.50;;;11.03;;
6223;SDS011;3145;42.726;23.342;2022-09-25T00:34:52;13.50;;;11.07;;
6223;SDS011;3145;42.726;23.342;2022-09-25T00:37:19;13.13;;;11.50;;
6223;SDS011;3145;42.726;23.342;2022-09-25T00:39:46;12.17;;;11.00;;
6223;SDS011;3145;42.726;23.342;2022-09-25T00:42:13;11.93;;;10.57;;
6223;SDS011;3145;42.726;23.342;2022-09-25T00:47:37;12.47;;;11.17;;
6223;SDS011;3145;42.726;23.342;2022-09-25T00:50:15;11.93;;;10.73;;
6223;SDS011;3145;42.726;23.342;2022-09-25T00:52:50;13.07;;;11.43;;
6223;SDS011;3145;42.726;23.342;2022-09-25T00:55:20;14.00;;;11.53;;
6223;SDS011;3145;42.726;23.342;2022-09-25T00:57:47;12.50;;;11.20;;
6223;SDS011;3145;42.726;23.342;2022-09-25T01:00:17;11.93;;;10.57;;
6223;SDS011;3145;42.726;23.342;2022-09-25T01:02:46;15.03;;;11.27;;
6223;SDS011;3145;42.726;23.342;2022-09-25T01:05:17;11.30;;;10.13;;
6223;SDS011;3145;42.726;23.342;2022-09-25T01:07:47;13.73;;;11.27;;
6223;SDS011;3145;42.726;23.342;2022-09-25T01:10:15;11.97;;;10.37;;
6223;SDS011;3145;42.726;23.342;2022-09-25T01:12:44;12.67;;;10.97;;
6223;SDS011;3145;42.726;23.342;2022-09-25T01:15:14;11.57;;;9.83;;
6223;SDS011;3145;42.726;23.342;2022-09-25T01:17:44;11.73;;;10.13;;
6223;SDS011;3145;42.726;23.342;2022-09-25T01:20:24;12.50;;;10.67;;
6223;SDS011;3145;42.726;23.342;2022-09-25T01:23:09;11.47;;;10.27;;
6223;SDS011;3145;42.726;23.342;2022-09-25T01:25:46;15.40;;;11.30;;
6223;SDS011;3145;42.726;23.342;2022-09-25T01:31:18;12.87;;;10.60;;
6223;SDS011;3145;42.726;23.342;2022-09-25T01:33:51;11.90;;;10.60;;
6223;SDS011;3145;42.726;23.342;2022-09-25T01:36:24;13.63;;;11.07;;
6223;SDS011;3145;42.726;23.342;2022-09-25T01:38:56;13.20;;;10.50;;
6223;SDS011;3145;42.726;23.342;2022-09-25T01:41:29;12.80;;;11.47;;
6223;SDS011;3145;42.726;23.342;2022-09-25T01:44:02;12.57;;;11.37;;
6223;SDS011;3145;42.726;23.342;2022-09-25T01:46:35;19.40;;;12.60;;
6223;SDS011;3145;42.726;23.342;2022-09-25T01:49:07;13.13;;;11.67;;
6223;SDS011;3145;42.726;23.342;2022-09-25T01:51:38;13.47;;;11.87;;
6223;SDS011;3145;42.726;23.342;2022-09-25T01:54:09;14.43;;;12.83;;
6223;SDS011;3145;42.726;23.342;2022-09-25T01:56:41;15.13;;;12.43;;
6223;SDS011;3145;42.726;23.342;2022-09-25T01:59:15;14.97;;;12.67;;
6223;SDS011;3145;42.726;23.342;2022-09-25T02:01:44;17.03;;;11.33;;
6223;SDS011;3145;42.726;23.342;2022-09-25T02:04:13;16.60;;;12.03;;
6223;SDS011;3145;42.726;23.342;2022-09-25T02:06:46;12.07;;;10.73;;
6223;SDS011;3145;42.726;23.342;2022-09-25T02:09:17;13.80;;;10.37;;
6223;SDS011;3145;42.726;23.342;2022-09-25T02:11:55;14.30;;;11.13;;
6223;SDS011;3145;42.726;23.342;2022-09-25T02:14:30;15.00;;;12.40;;
6223;SDS011;3145;42.726;23.342;2022-09-25T02:17:01;15.13;;;11.73;;
6223;SDS011;3145;42.726;23.342;2022-09-25T02:19:32;16.77;;;12.03;;
6223;SDS011;3145;42.726;23.342;2022-09-25T02:22:16;13.10;;;11.53;;
6223;SDS011;3145;42.726;23.342;2022-09-25T02:24:47;14.30;;;11.87;;
6223;SDS011;3145;42.726;23.342;2022-09-25T02:27:18;13.27;;;11.87;;
6223;SDS011;3145;42.726;23.342;2022-09-25T02:29:48;12.73;;;11.43;;
6223;SDS011;3145;42.726;23.342;2022-09-25T02:32:17;14.83;;;12.07;;
6223;SDS011;3145;42.726;23.342;2022-09-25T02:34:47;13.07;;;11.70;;
6223;SDS011;3145;42.726;23.342;2022-09-25T02:37:14;12.83;;;11.50;;
6223;SDS011;3145;42.726;23.342;2022-09-25T02:39:42;14.17;;;12.37;;
6223;SDS011;3145;42.726;23.342;2022-09-25T02:42:13;12.60;;;11.40;;
6223;SDS011;3145;42.726;23.342;2022-09-25T02:44:55;16.50;;;12.33;;
6223;SDS011;3145;42.726;23.342;2022-09-25T02:47:33;16.83;;;12.13;;
6223;SDS011;3145;42.726;23.342;2022-09-25T02:50:07;13.87;;;11.53;;
6223;SDS011;3145;42.726;23.342;2022-09-25T02:52:42;12.53;;;11.23;;
6223;SDS011;3145;42.726;23.342;2022-09-25T02:55:15;15.90;;;11.67;;
6223;SDS011;3145;42.726;23.342;2022-09-25T02:57:48;13.07;;;11.77;;
6223;SDS011;3145;42.726;23.342;2022-09-25T03:00:19;16.57;;;12.23;;
6223;SDS011;3145;42.726;23.342;2022-09-25T03:02:47;13.33;;;11.43;;
6223;SDS011;3145;42.726;23.342;2022-09-25T03:05:18;15.23;;;11.73;;
6223;SDS011;3145;42.726;23.342;2022-09-25T03:07:46;17.03;;;11.43;;
6223;SDS011;3145;42.726;23.342;2022-09-25T03:10:31;16.20;;;11.67;;
6223;SDS011;3145;42.726;23.342;2022-09-25T03:13:11;14.13;;;11.63;;
6223;SDS011;3145;42.726;23.342;2022-09-25T03:15:40;16.73;;;12.80;;
6223;SDS011;3145;42.726;23.342;2022-09-25T03:18:11;16.03;;;11.20;;
6223;SDS011;3145;42.726;23.342;2022-09-25T03:20:38;16.77;;;12.20;;
6223;SDS011;3145;42.726;23.342;2022-09-25T03:23:05;16.60;;;12.37;;
6223;SDS011;3145;42.726;23.342;2022-09-25T03:25:32;15.23;;;12.53;;
6223;SDS011;3145;42.726;23.342;2022-09-25T03:27:59;14.90;;;11.57;;
6223;SDS011;3145;42.726;23.342;2022-09-25T03:30:26;14.63;;;11.47;;
6223;SDS011;3145;42.726;23.342;2022-09-25T03:32:54;15.20;;;11.30;;
6223;SDS011;3145;42.726;23.342;2022-09-25T03:35:21;19.13;;;12.20;;
6223;SDS011;3145;42.726;23.342;2022-09-25T03:37:48;13.67;;;11.17;;
6223;SDS011;3145;42.726;23.342;2022-09-25T03:40:14;15.00;;;12.03;;
6223;SDS011;3145;42.726;23.342;2022-09-25T03:42:41;17.60;;;12.13;;
6223;SDS011;3145;42.726;23.342;2022-09-25T03:45:08;15.73;;;11.60;;
6223;SDS011;3145;42.726;23.342;2022-09-25T03:47:35;15.80;;;12.43;;
6223;SDS011;3145;42.726;23.342;2022-09-25T03:50:04;17.90;;;12.97;;
6223;SDS011;3145;42.726;23.342;2022-09-25T03:52:32;18.87;;;12.83;;
6223;SDS011;3145;42.726;23.342;2022-09-25T03:54:59;15.43;;;11.50;;
6223;SDS011;3145;42.726;23.342;2022-09-25T03:57:25;13.87;;;11.40;;
6223;SDS011;3145;42.726;23.342;2022-09-25T03:59:52;27.00;;;16.07;;
6223;SDS011;3145;42.726;23.342;2022-09-25T04:02:19;25.47;;;18.80;;
6223;SDS011;3145;42.726;23.342;2022-09-25T04:04:45;40.97;;;24.63;;
6223;SDS011;3145;42.726;23.342;2022-09-25T04:07:13;43.03;;;25.00;;
6223;SDS011;3145;42.726;23.342;2022-09-25T04:09:40;35.70;;;23.80;;
6223;SDS011;3145;42.726;23.342;2022-09-25T04:12:07;42.90;;;26.33;;
6223;SDS011;3145;42.726;23.342;2022-09-25T04:14:35;42.27;;;27.00;;
6223;SDS011;3145;42.726;23.342;2022-09-25T04:17:02;34.93;;;22.33;;
6223;SDS011;3145;42.726;23.342;2022-09-25T04:19:28;38.23;;;23.80;;
6223;SDS011;3145;42.726;23.342;2022-09-25T04:21:55;30.03;;;20.73;;
6223;SDS011;3145;42.726;23.342;2022-09-25T04:24:23;34.07;;;21.50;;
6223;SDS011;3145;42.726;23.342;2022-09-25T04:27:07;32.07;;;19.80;;
6223;SDS011;3145;42.726;23.342;2022-09-25T04:29:34;30.63;;;18.60;;
6223;SDS011;3145;42.726;23.342;2022-09-25T04:32:01;36.10;;;21.87;;
6223;SDS011;3145;42.726;23.342;2022-09-25T04:34:45;29.40;;;20.63;;
6223;SDS011;3145;42.726;23.342;2022-09-25T04:37:12;34.20;;;21.40;;
6223;SDS011;3145;42.726;23.342;2022-09-25T04:39:41;27.23;;;19.23;;
6223;SDS011;3145;42.726;23.342;2022-09-25T04:42:07;30.60;;;20.47;;
6223;SDS011;3145;42.726;23.342;2022-09-25T04:44:34;28.00;;;20.27;;
6223;SDS011;3145;42.726;23.342;2022-09-25T04:47:01;31.27;;;20.80;;
6223;SDS011;3145;42.726;23.342;2022-09-25T04:49:28;28.73;;;19.50;;
6223;SDS011;3145;42.726;23.342;2022-09-25T04:51:55;23.60;;;18.30;;
6223;SDS011;3145;42.726;23.342;2022-09-25T04:54:22;24.63;;;17.93;;
6223;SDS011;3145;42.726;23.342;2022-09-25T04:56:50;24.97;;;18.40;;
6223;SDS011;3145;42.726;23.342;2022-09-25T04:59:18;32.80;;;19.27;;
6223;SDS011;3145;42.726;23.342;2022-09-25T05:01:46;29.57;;;20.03;;
6223;SDS011;3145;42.726;23.342;2022-09-25T05:04:13;29.53;;;18.63;;
6223;SDS011;3145;42.726;23.342;2022-09-25T05:06:40;23.17;;;16.83;;
6223;SDS011;3145;42.726;23.342;2022-09-25T05:09:07;24.23;;;16.97;;
6223;SDS011;3145;42.726;23.342;2022-09-25T05:11:33;21.90;;;14.37;;
6223;SDS011;3145;42.726;23.342;2022-09-25T05:14:02;29.03;;;15.07;;
6223;SDS011;3145;42.726;23.342;2022-09-25T05:16:28;33.43;;;12.07;;
6223;SDS011;3145;42.726;23.342;2022-09-25T05:18:55;19.10;;;11.50;;
6223;SDS011;3145;42.726;23.342;2022-09-25T05:21:22;19.70;;;9.63;;
6223;SDS011;3145;42.726;23.342;2022-09-25T05:23:49;11.00;;;9.03;;
6223;SDS011;3145;42.726;23.342;2022-09-25T05:26:16;12.17;;;8.73;;
6223;SDS011;3145;42.726;23.342;2022-09-25T05:28:43;9.90;;;8.90;;
6223;SDS011;3145;42.726;23.342;2022-09-25T05:31:15;15.30;;;7.87;;
6223;SDS011;3145;42.726;23.342;2022-09-25T05:33:42;28.03;;;16.80;;
6223;SDS011;3145;42.726;23.342;2022-09-25T05:36:09;31.67;;;16.50;;
6223;SDS011;3145;42.726;23.342;2022-09-25T05:38:37;19.80;;;13.60;;
6223;SDS011;3145;42.726;23.342;2022-09-25T05:41:05;18.97;;;11.90;;
6223;SDS011;3145;42.726;23.342;2022-09-25T05:43:33;18.07;;;11.97;;
6223;SDS011;3145;42.726;23.342;2022-09-25T05:46:03;27.67;;;13.73;;
6223;SDS011;3145;42.726;23.342;2022-09-25T05:48:31;14.33;;;10.43;;
6223;SDS011;3145;42.726;23.342;2022-09-25T05:50:58;10.23;;;8.93;;
6223;SDS011;3145;42.726;23.342;2022-09-25T05:53:25;10.53;;;8.97;;
6223;SDS011;3145;42.726;23.342;2022-09-25T05:55:53;10.43;;;8.70;;
6223;SDS011;3145;42.726;23.342;2022-09-25T05:58:22;13.67;;;7.87;;
6223;SDS011;3145;42.726;23.342;2022-09-25T06:00:49;9.73;;;7.90;;
6223;SDS011;3145;42.726;23.342;2022-09-25T06:03:16;11.40;;;7.93;;
6223;SDS011;3145;42.726;23.342;2022-09-25T06:05:45;7.93;;;6.93;;
6223;SDS011;3145;42.726;23.342;2022-09-25T06:08:13;8.60;;;7.37;;
6223;SDS011;3145;42.726;23.342;2022-09-25T06:10:40;9.70;;;7.30;;
6223;SDS011;3145;42.726;23.342;2022-09-25T06:13:07;7.63;;;6.93;;
6223;SDS011;3145;42.726;23.342;2022-09-25T06:15:35;9.07;;;7.27;;
6223;SDS011;3145;42.726;23.342;2022-09-25T06:18:03;15.77;;;8.97;;
6223;SDS011;3145;42.726;23.342;2022-09-25T06:20:31;10.23;;;8.40;;
6223;SDS011;3145;42.726;23.342;2022-09-25T06:22:59;12.40;;;9.43;;
6223;SDS011;3145;42.726;23.342;2022-09-25T06:25:26;13.33;;;8.37;;
6223;SDS011;3145;42.726;23.342;2022-09-25T06:27:54;15.30;;;8.77;;
6223;SDS011;3145;42.726;23.342;2022-09-25T06:30:24;10.53;;;8.67;;
6223;SDS011;3145;42.726;23.342;2022-09-25T06:32:55;14.17;;;8.80;;
6223;SDS011;3145;42.726;23.342;2022-09-25T06:35:22;8.50;;;7.23;;
6223;SDS011;3145;42.726;23.342;2022-09-25T06:37:49;8.73;;;7.47;;
6223;SDS011;3145;42.726;23.342;2022-09-25T06:40:17;7.43;;;6.57;;
6223;SDS011;3145;42.726;23.342;2022-09-25T06:42:44;8.37;;;7.47;;
6223;SDS011;3145;42.726;23.342;2022-09-25T06:45:11;8.73;;;7.73;;
6223;SDS011;3145;42.726;23.342;2022-09-25T06:47:37;7.70;;;6.90;;
6223;SDS011;3145;42.726;23.342;2022-09-25T06:50:05;8.63;;;7.47;;
6223;SDS011;3145;42.726;23.342;2022-09-25T06:52:32;7.27;;;6.53;;
6223;SDS011;3145;42.726;23.342;2022-09-25T06:54:59;6.67;;;6.07;;
6223;SDS011;3145;42.726;23.342;2022-09-25T06:57:27;8.17;;;5.80;;
6223;SDS011;3145;42.726;23.342;2022-09-25T06:59:54;5.83;;;5.03;;
6223;SDS011;3145;42.726;23.342;2022-09-25T07:02:21;7.27;;;6.20;;
6223;SDS011;3145;42.726;23.342;2022-09-25T07:05:06;7.90;;;6.13;;
6223;SDS011;3145;42.726;23.342;2022-09-25T07:07:34;8.53;;;6.87;;
6223;SDS011;3145;42.726;23.342;2022-09-25T07:10:00;6.50;;;5.90;;
6223;SDS011;3145;42.726;23.342;2022-09-25T07:12:29;6.90;;;6.30;;
6223;SDS011;3145;42.726;23.342;2022-09-25T07:14:58;5.83;;;5.33;;
6223;SDS011;3145;42.726;23.342;2022-09-25T07:17:24;6.13;;;5.53;;
6223;SDS011;3145;42.726;23.342;2022-09-25T07:19:51;5.33;;;4.90;;
6223;SDS011;3145;42.726;23.342;2022-09-25T07:22:18;5.63;;;5.13;;
6223;SDS011;3145;42.726;23.342;2022-09-25T07:24:44;6.27;;;5.70;;
6223;SDS011;3145;42.726;23.342;2022-09-25T07:27:11;5.30;;;4.80;;
6223;SDS011;3145;42.726;23.342;2022-09-25T07:29:39;5.90;;;4.93;;
6223;SDS011;3145;42.726;23.342;2022-09-25T07:32:06;5.37;;;4.87;;
6223;SDS011;3145;42.726;23.342;2022-09-25T07:34:33;6.10;;;5.33;;
6223;SDS011;3145;42.726;23.342;2022-09-25T07:37:01;5.47;;;4.97;;
6223;SDS011;3145;42.726;23.342;2022-09-25T07:39:28;6.17;;;5.67;;
6223;SDS011;3145;42.726;23.342;2022-09-25T07:41:55;6.00;;;5.40;;
6223;SDS011;3145;42.726;23.342;2022-09-25T07:44:21;6.07;;;5.50;;
6223;SDS011;3145;42.726;23.342;2022-09-25T07:46:51;8.03;;;5.47;;
6223;SDS011;3145;42.726;23.342;2022-09-25T07:49:17;7.10;;;5.00;;
6223;SDS011;3145;42.726;23.342;2022-09-25T07:51:44;5.50;;;5.00;;
6223;SDS011;3145;42.726;23.342;2022-09-25T07:54:11;5.37;;;4.87;;
6223;SDS011;3145;42.726;23.342;2022-09-25T07:56:37;6.80;;;5.40;;
6223;SDS011;3145;42.726;23.342;2022-09-25T07:59:04;7.67;;;5.37;;
6223;SDS011;3145;42.726;23.342;2022-09-25T08:01:31;5.83;;;5.33;;
6223;SDS011;3145;42.726;23.342;2022-09-25T08:03:59;5.67;;;5.17;;
6223;SDS011;3145;42.726;23.342;2022-09-25T08:06:26;5.60;;;5.10;;
6223;SDS011;3145;42.726;23.342;2022-09-25T08:08:53;6.80;;;6.13;;
6223;SDS011;3145;42.726;23.342;2022-09-25T08:11:19;5.80;;;5.20;;
6223;SDS011;3145;42.726;23.342;2022-09-25T08:13:47;5.87;;;5.23;;
6223;SDS011;3145;42.726;23.342;2022-09-25T08:16:14;5.67;;;5.10;;
6223;SDS011;3145;42.726;23.342;2022-09-25T08:18:43;5.73;;;4.93;;
6223;SDS011;3145;42.726;23.342;2022-09-25T08:21:13;4.33;;;3.93;;
6223;SDS011;3145;42.726;23.342;2022-09-25T08:23:41;4.17;;;3.83;;
6223;SDS011;3145;42.726;23.342;2022-09-25T08:26:09;4.47;;;4.07;;
6223;SDS011;3145;42.726;23.342;2022-09-25T08:28:37;4.72;;;4.32;;
6223;SDS011;3145;42.726;23.342;2022-09-25T08:31:04;4.60;;;3.92;;
6223;SDS011;3145;42.726;23.342;2022-09-25T08:33:30;3.53;;;3.22;;
6223;SDS011;3145;42.726;23.342;2022-09-25T08:35:59;3.37;;;3.07;;
6223;SDS011;3145;42.726;23.342;2022-09-25T08:38:28;4.77;;;3.63;;
6223;SDS011;3145;42.726;23.342;2022-09-25T08:40:57;3.87;;;3.57;;
6223;SDS011;3145;42.726;23.342;2022-09-25T08:43:28;3.30;;;3.00;;
6223;SDS011;3145;42.726;23.342;2022-09-25T08:45:57;3.30;;;3.10;;
6223;SDS011;3145;42.726;23.342;2022-09-25T08:48:47;4.43;;;3.60;;
6223;SDS011;3145;42.726;23.342;2022-09-25T08:51:27;3.27;;;3.07;;
6223;SDS011;3145;42.726;23.342;2022-09-25T08:53:56;2.93;;;2.73;;
6223;SDS011;3145;42.726;23.342;2022-09-25T08:56:25;3.47;;;3.17;;
6223;SDS011;3145;42.726;23.342;2022-09-25T08:58:53;3.60;;;3.00;;
6223;SDS011;3145;42.726;23.342;2022-09-25T09:01:27;2.90;;;2.70;;
6223;SDS011;3145;42.726;23.342;2022-09-25T09:04:01;3.23;;;2.93;;
6223;SDS011;3145;42.726;23.342;2022-09-25T09:06:30;3.57;;;3.20;;
6223;SDS011;3145;42.726;23.342;2022-09-25T09:09:01;2.97;;;2.77;;
6223;SDS011;3145;42.726;23.342;2022-09-25T09:11:34;1.93;;;1.83;;
6223;SDS011;3145;42.726;23.342;2022-09-25T09:14:03;2.33;;;2.23;;
6223;SDS011;3145;42.726;23.342;2022-09-25T09:16:33;2.70;;;2.50;;
6223;SDS011;3145;42.726;23.342;2022-09-25T09:19:06;2.23;;;2.03;;
6223;SDS011;3145;42.726;23.342;2022-09-25T09:21:36;2.90;;;2.70;;
6223;SDS011;3145;42.726;23.342;2022-09-25T09:24:09;4.43;;;2.83;;
6223;SDS011;3145;42.726;23.342;2022-09-25T09:26:48;3.43;;;3.13;;
6223;SDS011;3145;42.726;23.342;2022-09-25T09:29:36;2.80;;;2.33;;
6223;SDS011;3145;42.726;23.342;2022-09-25T09:35:22;2.57;;;2.40;;
6223;SDS011;3145;42.726;23.342;2022-09-25T09:38:01;2.43;;;2.23;;
6223;SDS011;3145;42.726;23.342;2022-09-25T09:40:42;2.30;;;2.10;;
6223;SDS011;3145;42.726;23.342;2022-09-25T09:43:19;3.07;;;2.50;;
6223;SDS011;3145;42.726;23.342;2022-09-25T09:45:57;2.27;;;2.07;;
6223;SDS011;3145;42.726;23.342;2022-09-25T09:48:32;2.77;;;2.57;;
6223;SDS011;3145;42.726;23.342;2022-09-25T09:51:06;1.80;;;1.70;;
6223;SDS011;3145;42.726;23.342;2022-09-25T09:53:40;3.50;;;2.33;;
6223;SDS011;3145;42.726;23.342;2022-09-25T09:56:11;1.93;;;1.83;;
6223;SDS011;3145;42.726;23.342;2022-09-25T09:58:43;6.80;;;2.67;;
6223;SDS011;3145;42.726;23.342;2022-09-25T10:01:14;2.70;;;2.50;;
6223;SDS011;3145;42.726;23.342;2022-09-25T10:03:44;2.90;;;2.37;;
6223;SDS011;3145;42.726;23.342;2022-09-25T10:06:17;2.40;;;2.20;;
6223;SDS011;3145;42.726;23.342;2022-09-25T10:08:48;4.10;;;3.73;;
6223;SDS011;3145;42.726;23.342;2022-09-25T10:11:17;3.33;;;2.80;;
6223;SDS011;3145;42.726;23.342;2022-09-25T10:13:45;1.90;;;1.80;;
6223;SDS011;3145;42.726;23.342;2022-09-25T10:16:13;2.27;;;2.07;;
6223;SDS011;3145;42.726;23.342;2022-09-25T10:18:44;2.40;;;2.20;;
6223;SDS011;3145;42.726;23.342;2022-09-25T10:21:15;2.50;;;2.30;;
6223;SDS011;3145;42.726;23.342;2022-09-25T10:23:48;2.23;;;2.03;;
6223;SDS011;3145;42.726;23.342;2022-09-25T10:26:25;3.40;;;1.93;;
6223;SDS011;3145;42.726;23.342;2022-09-25T10:28:53;2.17;;;1.83;;
6223;SDS011;3145;42.726;23.342;2022-09-25T10:31:22;2.30;;;2.10;;
6223;SDS011;3145;42.726;23.342;2022-09-25T10:33:57;2.20;;;2.00;;
6223;SDS011;3145;42.726;23.342;2022-09-25T10:36:34;2.40;;;2.20;;
6223;SDS011;3145;42.726;23.342;2022-09-25T10:39:05;3.00;;;2.60;;
6223;SDS011;3145;42.726;23.342;2022-09-25T10:41:52;2.53;;;2.33;;
6223;SDS011;3145;42.726;23.342;2022-09-25T10:44:21;2.50;;;2.20;;
6223;SDS011;3145;42.726;23.342;2022-09-25T10:46:53;2.13;;;2.00;;
6223;SDS011;3145;42.726;23.342;2022-09-25T10:49:44;2.40;;;2.17;;
6223;SDS011;3145;42.726;23.342;2022-09-25T10:52:40;2.30;;;2.10;;
6223;SDS011;3145;42.726;23.342;2022-09-25T10:55:18;2.63;;;2.40;;
6223;SDS011;3145;42.726;23.342;2022-09-25T10:57:51;2.10;;;2.00;;
6223;SDS011;3145;42.726;23.342;2022-09-25T11:00:23;2.10;;;2.00;;
6223;SDS011;3145;42.726;23.342;2022-09-25T11:02:52;1.92;;;1.80;;
6223;SDS011;3145;42.726;23.342;2022-09-25T11:05:22;1.90;;;1.80;;
6223;SDS011;3145;42.726;23.342;2022-09-25T11:07:53;2.53;;;2.00;;
6223;SDS011;3145;42.726;23.342;2022-09-25T11:10:24;2.03;;;1.90;;
6223;SDS011;3145;42.726;23.342;2022-09-25T11:12:53;2.22;;;1.98;;
6223;SDS011;3145;42.726;23.342;2022-09-25T11:15:22;2.15;;;2.05;;
6223;SDS011;3145;42.726;23.342;2022-09-25T11:17:52;2.20;;;2.05;;
6223;SDS011;3145;42.726;23.342;2022-09-25T11:20:22;2.28;;;2.08;;
6223;SDS011;3145;42.726;23.342;2022-09-25T11:23:06;2.15;;;1.98;;
6223;SDS011;3145;42.726;23.342;2022-09-25T11:25:49;2.25;;;1.92;;
6223;SDS011;3145;42.726;23.342;2022-09-25T11:28:25;2.20;;;2.00;;
6223;SDS011;3145;42.726;23.342;2022-09-25T11:30:57;3.22;;;2.30;;
6223;SDS011;3145;42.726;23.342;2022-09-25T11:33:30;4.72;;;2.65;;
6223;SDS011;3145;42.726;23.342;2022-09-25T11:36:07;3.20;;;2.90;;
6223;SDS011;3145;42.726;23.342;2022-09-25T11:38:40;2.28;;;1.75;;
6223;SDS011;3145;42.726;23.342;2022-09-25T11:41:30;2.65;;;1.80;;
6223;SDS011;3145;42.726;23.342;2022-09-25T11:44:07;5.85;;;3.53;;
6223;SDS011;3145;42.726;23.342;2022-09-25T11:46:44;2.60;;;2.35;;
6223;SDS011;3145;42.726;23.342;2022-09-25T11:49:18;1.88;;;1.75;;
6223;SDS011;3145;42.726;23.342;2022-09-25T11:52:00;2.28;;;2.08;;
6223;SDS011;3145;42.726;23.342;2022-09-25T11:55:01;2.47;;;2.13;;
6223;SDS011;3145;42.726;23.342;2022-09-25T11:57:42;1.67;;;1.58;;
6223;SDS011;3145;42.726;23.342;2022-09-25T12:00:22;2.10;;;1.63;;
6223;SDS011;3145;42.726;23.342;2022-09-25T12:03:10;1.90;;;1.70;;
6223;SDS011;3145;42.726;23.342;2022-09-25T12:06:01;2.20;;;2.00;;
6223;SDS011;3145;42.726;23.342;2022-09-25T12:08:47;1.50;;;1.40;;
6223;SDS011;3145;42.726;23.342;2022-09-25T12:11:23;1.65;;;1.55;;
6223;SDS011;3145;42.726;23.342;2022-09-25T12:14:02;1.33;;;1.23;;
6223;SDS011;3145;42.726;23.342;2022-09-25T12:16:41;1.65;;;1.55;;
6223;SDS011;3145;42.726;23.342;2022-09-25T12:19:17;2.70;;;1.50;;
6223;SDS011;3145;42.726;23.342;2022-09-25T12:21:54;1.67;;;1.57;;
6223;SDS011;3145;42.726;23.342;2022-09-25T12:24:47;1.70;;;1.60;;
6223;SDS011;3145;42.726;23.342;2022-09-25T12:27:26;1.93;;;1.73;;
6223;SDS011;3145;42.726;23.342;2022-09-25T12:30:09;2.90;;;1.43;;
6223;SDS011;3145;42.726;23.342;2022-09-25T12:32:49;1.60;;;1.40;;
6223;SDS011;3145;42.726;23.342;2022-09-25T12:35:43;3.43;;;1.70;;
6223;SDS011;3145;42.726;23.342;2022-09-25T12:38:20;1.73;;;1.40;;
6223;SDS011;3145;42.726;23.342;2022-09-25T12:40:54;2.63;;;1.80;;
6223;SDS011;3145;42.726;23.342;2022-09-25T12:43:26;2.65;;;1.73;;
6223;SDS011;3145;42.726;23.342;2022-09-25T12:46:01;1.83;;;1.73;;
6223;SDS011;3145;42.726;23.342;2022-09-25T12:48:36;1.73;;;1.63;;
6223;SDS011;3145;42.726;23.342;2022-09-25T12:51:09;1.95;;;1.70;;
6223;SDS011;3145;42.726;23.342;2022-09-25T12:53:42;1.35;;;1.25;;
6223;SDS011;3145;42.726;23.342;2022-09-25T12:56:13;4.80;;;3.15;;
6223;SDS011;3145;42.726;23.342;2022-09-25T12:58:49;1.75;;;1.35;;
6223;SDS011;3145;42.726;23.342;2022-09-25T13:01:26;3.35;;;1.50;;
6223;SDS011;3145;42.726;23.342;2022-09-25T13:04:03;2.25;;;1.52;;
6223;SDS011;3145;42.726;23.342;2022-09-25T13:06:50;1.47;;;1.37;;
6223;SDS011;3145;42.726;23.342;2022-09-25T13:09:27;2.00;;;1.70;;
6223;SDS011;3145;42.726;23.342;2022-09-25T13:12:00;2.08;;;1.58;;
6223;SDS011;3145;42.726;23.342;2022-09-25T13:14:32;1.42;;;1.33;;
6223;SDS011;3145;42.726;23.342;2022-09-25T13:17:04;13.90;;;1.83;;
6223;SDS011;3145;42.726;23.342;2022-09-25T13:19:37;2.05;;;1.80;;
6223;SDS011;3145;42.726;23.342;2022-09-25T13:22:04;1.58;;;1.48;;
6223;SDS011;3145;42.726;23.342;2022-09-25T13:24:38;1.40;;;1.30;;
6223;SDS011;3145;42.726;23.342;2022-09-25T13:27:12;2.28;;;1.85;;
6223;SDS011;3145;42.726;23.342;2022-09-25T13:29:50;1.63;;;1.27;;
6223;SDS011;3145;42.726;23.342;2022-09-25T13:32:20;3.22;;;2.90;;
6223;SDS011;3145;42.726;23.342;2022-09-25T13:34:53;1.52;;;1.42;;
6223;SDS011;3145;42.726;23.342;2022-09-25T13:37:23;1.92;;;1.60;;
6223;SDS011;3145;42.726;23.342;2022-09-25T13:39:52;1.60;;;1.50;;
6223;SDS011;3145;42.726;23.342;2022-09-25T13:42:37;1.60;;;1.48;;
6223;SDS011;3145;42.726;23.342;2022-09-25T13:45:28;1.60;;;1.40;;
6223;SDS011;3145;42.726;23.342;2022-09-25T13:47:59;2.55;;;1.20;;
6223;SDS011;3145;42.726;23.342;2022-09-25T13:50:31;1.20;;;1.05;;
6223;SDS011;3145;42.726;23.342;2022-09-25T13:53:10;1.60;;;1.10;;
6223;SDS011;3145;42.726;23.342;2022-09-25T13:58:58;1.17;;;1.08;;
6223;SDS011;3145;42.726;23.342;2022-09-25T14:01:41;1.58;;;1.48;;
6223;SDS011;3145;42.726;23.342;2022-09-25T14:04:09;1.25;;;1.15;;
6223;SDS011;3145;42.726;23.342;2022-09-25T14:06:46;1.85;;;1.13;;
6223;SDS011;3145;42.726;23.342;2022-09-25T14:09:19;1.60;;;1.33;;
6223;SDS011;3145;42.726;23.342;2022-09-25T14:11:50;1.67;;;1.58;;
6223;SDS011;3145;42.726;23.342;2022-09-25T14:14:22;1.55;;;1.25;;
6223;SDS011;3145;42.726;23.342;2022-09-25T14:16:54;1.60;;;1.50;;
6223;SDS011;3145;42.726;23.342;2022-09-25T14:19:23;1.63;;;1.50;;
6223;SDS011;3145;42.726;23.342;2022-09-25T14:21:53;2.22;;;1.60;;
6223;SDS011;3145;42.726;23.342;2022-09-25T14:24:21;1.70;;;1.60;;
6223;SDS011;3145;42.726;23.342;2022-09-25T14:26:53;1.40;;;1.30;;
6223;SDS011;3145;42.726;23.342;2022-09-25T14:29:23;1.48;;;1.30;;
6223;SDS011;3145;42.726;23.342;2022-09-25T14:31:54;1.90;;;1.40;;
6223;SDS011;3145;42.726;23.342;2022-09-25T14:34:48;1.80;;;1.48;;
6223;SDS011;3145;42.726;23.342;2022-09-25T14:37:30;2.85;;;1.35;;
6223;SDS011;3145;42.726;23.342;2022-09-25T14:40:16;1.25;;;1.15;;
6223;SDS011;3145;42.726;23.342;2022-09-25T14:45:44;1.40;;;1.30;;
6223;SDS011;3145;42.726;23.342;2022-09-25T14:48:22;1.52;;;1.42;;
6223;SDS011;3145;42.726;23.342;2022-09-25T14:50:53;2.05;;;1.45;;
6223;SDS011;3145;42.726;23.342;2022-09-25T14:53:24;1.25;;;1.15;;
6223;SDS011;3145;42.726;23.342;2022-09-25T14:55:54;1.23;;;1.13;;
6223;SDS011;3145;42.726;23.342;2022-09-25T14:58:24;2.13;;;1.20;;
6223;SDS011;3145;42.726;23.342;2022-09-25T15:00:53;1.30;;;1.20;;
6223;SDS011;3145;42.726;23.342;2022-09-25T15:03:23;2.10;;;1.23;;
6223;SDS011;3145;42.726;23.342;2022-09-25T15:05:55;1.13;;;1.02;;
6223;SDS011;3145;42.726;23.342;2022-09-25T15:08:32;2.40;;;1.15;;
6223;SDS011;3145;42.726;23.342;2022-09-25T15:11:03;1.23;;;1.10;;
6223;SDS011;3145;42.726;23.342;2022-09-25T15:13:36;1.30;;;1.20;;
6223;SDS011;3145;42.726;23.342;2022-09-25T15:16:02;1.40;;;1.30;;
6223;SDS011;3145;42.726;23.342;2022-09-25T15:18:57;1.90;;;1.80;;
6223;SDS011;3145;42.726;23.342;2022-09-25T15:21:26;1.57;;;1.47;;
6223;SDS011;3145;42.726;23.342;2022-09-25T15:23:57;1.50;;;1.40;;
6223;SDS011;3145;42.726;23.342;2022-09-25T15:26:27;1.50;;;1.40;;
6223;SDS011;3145;42.726;23.342;2022-09-25T15:28:56;1.60;;;1.50;;
6223;SDS011;3145;42.726;23.342;2022-09-25T15:31:23;1.50;;;1.40;;